sensor_id;sensor_type;location;lat;lon;timestamp;pressure;altitude;pressure_sealevel;temperature;humidity
76973;BME280;65907;53.640;10.050;2023-06-04T00:02:19;101533.72;;;22.53;28.37
76973;BME280;65907;53.640;10.050;2023-06-04T00:04:44;101537.19;;;22.53;28.32
76973;BME280;65907;53.640;10.050;2023-06-04T00:07:09;101534.69;;;22.52;28.46
76973;BME280;65907;53.640;10.050;2023-06-04T00:09:34;101528.63;;;22.51;28.58
76973;BME280;65907;53.640;10.050;2023-06-04T00:12:00;101532.06;;;22.52;28.60
76973;BME280;65907;53.640;10.050;2023-06-04T00:14:25;101532.06;;;22.52;28.38
76973;BME280;65907;53.640;10.050;2023-06-04T00:16:50;101535.88;;;22.59;28.59
76973;BME280;65907;53.640;10.050;2023-06-04T00:19:20;101532.31;;;22.48;28.71
76973;BME280;65907;53.640;10.050;2023-06-04T00:21:46;101535.16;;;22.57;28.71
76973;BME280;65907;53.640;10.050;2023-06-04T00:24:11;101531.44;;;22.48;28.84
76973;BME280;65907;53.640;10.050;2023-06-04T00:26:37;101524.34;;;22.50;28.86
76973;BME280;65907;53.640;10.050;2023-06-04T00:29:02;101531.25;;;22.51;29.12
76973;BME280;65907;53.640;10.050;2023-06-04T00:31:27;101535.53;;;22.52;28.67
76973;BME280;65907;53.640;10.050;2023-06-04T00:33:53;101534.41;;;22.43;28.90
76973;BME280;65907;53.640;10.050;2023-06-04T00:36:18;101537.13;;;22.42;29.16
76973;BME280;65907;53.640;10.050;2023-06-04T00:38:43;101528.09;;;22.46;29.15
76973;BME280;65907;53.640;10.050;2023-06-04T00:41:08;101527.91;;;22.49;29.13
76973;BME280;65907;53.640;10.050;2023-06-04T00:43:34;101533.56;;;22.43;29.35
76973;BME280;65907;53.640;10.050;2023-06-04T00:46:05;101534.66;;;22.40;29.56
76973;BME280;65907;53.640;10.050;2023-06-04T00:48:34;101535.22;;;22.44;29.19
76973;BME280;65907;53.640;10.050;2023-06-04T00:51:01;101526.66;;;22.42;29.58
76973;BME280;65907;53.640;10.050;2023-06-04T00:53:26;101535.72;;;22.38;29.51
76973;BME280;65907;53.640;10.050;2023-06-04T00:55:52;101532.13;;;22.39;29.59
76973;BME280;65907;53.640;10.050;2023-06-04T00:58:17;101529.19;;;22.43;29.34
76973;BME280;65907;53.640;10.050;2023-06-04T01:00:43;101534.28;;;22.45;29.50
76973;BME280;65907;53.640;10.050;2023-06-04T01:03:10;101537.84;;;22.44;29.45
76973;BME280;65907;53.640;10.050;2023-06-04T01:05:43;101537.03;;;22.43;29.66
76973;BME280;65907;53.640;10.050;2023-06-04T01:08:12;101532.63;;;22.44;29.32
76973;BME280;65907;53.640;10.050;2023-06-04T01:10:38;101530.72;;;22.46;29.56
76973;BME280;65907;53.640;10.050;2023-06-04T01:13:03;101528.31;;;22.43;29.85
76973;BME280;65907;53.640;10.050;2023-06-04T01:15:28;101528.09;;;22.46;29.62
76973;BME280;65907;53.640;10.050;2023-06-04T01:17:58;101527.50;;;22.42;29.67
76973;BME280;65907;53.640;10.050;2023-06-04T01:20:36;101524.66;;;22.45;29.67
76973;BME280;65907;53.640;10.050;2023-06-04T01:25:34;101516.06;;;22.43;29.64
76973;BME280;65907;53.640;10.050;2023-06-04T01:28:03;101523.22;;;22.41;30.00
76973;BME280;65907;53.640;10.050;2023-06-04T01:30:32;101526.66;;;22.42;29.83
76973;BME280;65907;53.640;10.050;2023-06-04T01:32:58;101517.84;;;22.43;29.88
76973;BME280;65907;53.640;10.050;2023-06-04T01:35:25;101519.03;;;22.39;29.74
76973;BME280;65907;53.640;10.050;2023-06-04T01:37:50;101513.69;;;22.40;29.97
76973;BME280;65907;53.640;10.050;2023-06-04T01:40:16;101514.16;;;22.45;29.87
76973;BME280;65907;53.640;10.050;2023-06-04T01:42:42;101516.78;;;22.45;29.81
76973;BME280;65907;53.640;10.050;2023-06-04T01:45:07;101518.56;;;22.45;30.01
76973;BME280;65907;53.640;10.050;2023-06-04T01:47:33;101516.78;;;22.45;29.86
76973;BME280;65907;53.640;10.050;2023-06-04T01:49:58;101514.50;;;22.41;29.87
76973;BME280;65907;53.640;10.050;2023-06-04T01:52:24;101517.75;;;22.44;30.24
76973;BME280;65907;53.640;10.050;2023-06-04T01:54:51;101521.91;;;22.47;29.90
76973;BME280;65907;53.640;10.050;2023-06-04T01:57:17;101525.00;;;22.41;30.10
76973;BME280;65907;53.640;10.050;2023-06-04T01:59:44;101524.88;;;22.42;30.20
76973;BME280;65907;53.640;10.050;2023-06-04T02:02:10;101520.59;;;22.41;30.37
76973;BME280;65907;53.640;10.050;2023-06-04T02:04:37;101522.97;;;22.44;30.02
76973;BME280;65907;53.640;10.050;2023-06-04T02:07:06;101521.81;;;22.48;30.04
76973;BME280;65907;53.640;10.050;2023-06-04T02:09:33;101527.06;;;22.48;29.92
76973;BME280;65907;53.640;10.050;2023-06-04T02:11:59;101522.03;;;22.45;30.08
76973;BME280;65907;53.640;10.050;2023-06-04T02:14:27;101517.53;;;22.47;30.07
76973;BME280;65907;53.640;10.050;2023-06-04T02:16:52;101529.69;;;22.48;30.24
76973;BME280;65907;53.640;10.050;2023-06-04T02:19:19;101516.56;;;22.48;30.06
76973;BME280;65907;53.640;10.050;2023-06-04T02:21:44;101517.44;;;22.49;30.13
76973;BME280;65907;53.640;10.050;2023-06-04T02:24:10;101516.56;;;22.48;30.20
76973;BME280;65907;53.640;10.050;2023-06-04T02:26:35;101512.03;;;22.51;30.16
76973;BME280;65907;53.640;10.050;2023-06-04T02:29:00;101514.91;;;22.47;30.06
76973;BME280;65907;53.640;10.050;2023-06-04T02:31:26;101510.63;;;22.46;30.09
76973;BME280;65907;53.640;10.050;2023-06-04T02:33:51;101511.53;;;22.45;30.38
76973;BME280;65907;53.640;10.050;2023-06-04T02:36:16;101512.38;;;22.46;30.38
76973;BME280;65907;53.640;10.050;2023-06-04T02:38:42;101520.97;;;22.48;30.35
76973;BME280;65907;53.640;10.050;2023-06-04T02:41:08;101519.19;;;22.48;30.36
76973;BME280;65907;53.640;10.050;2023-06-04T02:43:33;101513.25;;;22.46;30.50
76973;BME280;65907;53.640;10.050;2023-06-04T02:45:58;101518.47;;;22.46;30.39
76973;BME280;65907;53.640;10.050;2023-06-04T02:48:23;101524.44;;;22.48;30.44
76973;BME280;65907;53.640;10.050;2023-06-04T02:50:51;101525.59;;;22.44;30.66
76973;BME280;65907;53.640;10.050;2023-06-04T02:53:16;101528.09;;;22.46;30.48
76973;BME280;65907;53.640;10.050;2023-06-04T02:55:45;101530.72;;;22.46;30.60
76973;BME280;65907;53.640;10.050;2023-06-04T02:58:11;101533.31;;;22.46;30.45
76973;BME280;65907;53.640;10.050;2023-06-04T03:00:36;101537.53;;;22.48;30.59
76973;BME280;65907;53.640;10.050;2023-06-04T03:03:02;101542.06;;;22.46;30.33
76973;BME280;65907;53.640;10.050;2023-06-04T03:05:27;101533.25;;;22.47;30.58
76973;BME280;65907;53.640;10.050;2023-06-04T03:07:52;101528.00;;;22.47;30.55
76973;BME280;65907;53.640;10.050;2023-06-04T03:10:18;101531.59;;;22.46;30.51
76973;BME280;65907;53.640;10.050;2023-06-04T03:12:43;101537.53;;;22.48;30.53
76973;BME280;65907;53.640;10.050;2023-06-04T03:15:11;101542.88;;;22.47;30.66
76973;BME280;65907;53.640;10.050;2023-06-04T03:17:36;101534.81;;;22.50;30.34
76973;BME280;65907;53.640;10.050;2023-06-04T03:20:02;101539.53;;;22.45;30.69
76973;BME280;65907;53.640;10.050;2023-06-04T03:22:29;101538.56;;;22.46;30.67
76973;BME280;65907;53.640;10.050;2023-06-04T03:24:54;101543.00;;;22.45;30.67
76973;BME280;65907;53.640;10.050;2023-06-04T03:27:22;101541.94;;;22.48;30.70
76973;BME280;65907;53.640;10.050;2023-06-04T03:29:50;101536.69;;;22.48;30.55
76973;BME280;65907;53.640;10.050;2023-06-04T03:32:18;101544.44;;;22.49;30.84
76973;BME280;65907;53.640;10.050;2023-06-04T03:34:43;101531.44;;;22.48;30.82
76973;BME280;65907;53.640;10.050;2023-06-04T03:37:09;101534.91;;;22.48;30.46
76973;BME280;65907;53.640;10.050;2023-06-04T03:39:34;101540.25;;;22.47;30.61
76973;BME280;65907;53.640;10.050;2023-06-04T03:41:59;101543.94;;;22.44;30.65
76973;BME280;65907;53.640;10.050;2023-06-04T03:44:25;101541.94;;;22.48;30.61
76973;BME280;65907;53.640;10.050;2023-06-04T03:46:50;101546.56;;;22.44;30.81
76973;BME280;65907;53.640;10.050;2023-06-04T03:49:16;101540.25;;;22.47;30.89
76973;BME280;65907;53.640;10.050;2023-06-04T03:51:42;101538.25;;;22.51;30.88
76973;BME280;65907;53.640;10.050;2023-06-04T03:54:07;101537.19;;;22.53;30.83
76973;BME280;65907;53.640;10.050;2023-06-04T03:56:36;101544.47;;;22.61;30.79
76973;BME280;65907;53.640;10.050;2023-06-04T03:59:04;101543.25;;;22.54;30.50
76973;BME280;65907;53.640;10.050;2023-06-04T04:01:32;101539.44;;;22.58;30.47
76973;BME280;65907;53.640;10.050;2023-06-04T04:03:58;101533.13;;;22.60;30.50
76973;BME280;65907;53.640;10.050;2023-06-04T04:06:23;101534.81;;;22.61;30.38
76973;BME280;65907;53.640;10.050;2023-06-04T04:08:48;101535.63;;;22.73;30.39
76973;BME280;65907;53.640;10.050;2023-06-04T04:11:14;101539.31;;;22.82;30.54
76973;BME280;65907;53.640;10.050;2023-06-04T04:13:40;101539.56;;;22.79;30.37
76973;BME280;65907;53.640;10.050;2023-06-04T04:16:05;101537.78;;;22.68;30.61
76973;BME280;65907;53.640;10.050;2023-06-04T04:18:34;101540.28;;;22.81;30.48
76973;BME280;65907;53.640;10.050;2023-06-04T04:21:00;101539.44;;;22.92;30.28
76973;BME280;65907;53.640;10.050;2023-06-04T04:23:25;101539.44;;;22.81;30.41
76973;BME280;65907;53.640;10.050;2023-06-04T04:25:52;101532.66;;;22.78;30.23
76973;BME280;65907;53.640;10.050;2023-06-04T04:28:18;101539.69;;;22.77;30.37
76973;BME280;65907;53.640;10.050;2023-06-04T04:30:44;101542.72;;;23.05;30.02
76973;BME280;65907;53.640;10.050;2023-06-04T04:33:09;101544.19;;;23.10;29.65
76973;BME280;65907;53.640;10.050;2023-06-04T04:35:38;101540.59;;;22.99;30.04
76973;BME280;65907;53.640;10.050;2023-06-04T04:38:07;101536.28;;;23.21;29.86
76973;BME280;65907;53.640;10.050;2023-06-04T04:40:33;101545.13;;;23.31;29.88
76973;BME280;65907;53.640;10.050;2023-06-04T04:42:58;101544.28;;;23.63;29.14
76973;BME280;65907;53.640;10.050;2023-06-04T04:45:23;101546.38;;;23.70;28.89
76973;BME280;65907;53.640;10.050;2023-06-04T04:47:48;101545.75;;;24.41;27.82
76973;BME280;65907;53.640;10.050;2023-06-04T04:50:15;101541.59;;;25.30;26.73
76973;BME280;65907;53.640;10.050;2023-06-04T04:52:41;101542.03;;;25.75;25.95
76973;BME280;65907;53.640;10.050;2023-06-04T04:55:06;101539.75;;;26.10;25.52
76973;BME280;65907;53.640;10.050;2023-06-04T04:57:31;101544.59;;;26.34;24.96
76973;BME280;65907;53.640;10.050;2023-06-04T04:59:57;101541.47;;;26.48;24.74
76973;BME280;65907;53.640;10.050;2023-06-04T05:02:24;101529.25;;;26.75;24.59
76973;BME280;65907;53.640;10.050;2023-06-04T05:04:49;101539.81;;;26.47;25.03
76973;BME280;65907;53.640;10.050;2023-06-04T05:07:15;101541.50;;;26.76;24.64
76973;BME280;65907;53.640;10.050;2023-06-04T05:09:44;101537.09;;;26.95;24.31
76973;BME280;65907;53.640;10.050;2023-06-04T05:12:10;101546.06;;;26.46;25.06
76973;BME280;65907;53.640;10.050;2023-06-04T05:14:35;101543.69;;;25.86;25.80
76973;BME280;65907;53.640;10.050;2023-06-04T05:17:01;101539.00;;;25.70;26.24
76973;BME280;65907;53.640;10.050;2023-06-04T05:19:28;101543.31;;;25.51;26.46
76973;BME280;65907;53.640;10.050;2023-06-04T05:21:53;101547.72;;;25.41;26.40
76973;BME280;65907;53.640;10.050;2023-06-04T05:24:21;101542.50;;;25.51;26.59
76973;BME280;65907;53.640;10.050;2023-06-04T05:26:46;101552.38;;;25.17;26.80
76973;BME280;65907;53.640;10.050;2023-06-04T05:29:13;101549.34;;;24.71;27.89
76973;BME280;65907;53.640;10.050;2023-06-04T05:31:38;101554.03;;;25.09;27.28
76973;BME280;65907;53.640;10.050;2023-06-04T05:34:04;101555.41;;;24.93;27.69
76973;BME280;65907;53.640;10.050;2023-06-04T05:36:33;101557.97;;;24.52;28.08
76973;BME280;65907;53.640;10.050;2023-06-04T05:38:59;101560.78;;;24.29;28.67
76973;BME280;65907;53.640;10.050;2023-06-04T05:41:25;101569.09;;;23.92;29.28
76973;BME280;65907;53.640;10.050;2023-06-04T05:43:53;101562.84;;;23.72;29.39
76973;BME280;65907;53.640;10.050;2023-06-04T05:46:18;101562.44;;;23.55;30.24
76973;BME280;65907;53.640;10.050;2023-06-04T05:48:43;101561.53;;;23.45;30.17
76973;BME280;65907;53.640;10.050;2023-06-04T05:51:09;101563.22;;;23.34;30.24
76973;BME280;65907;53.640;10.050;2023-06-04T05:53:34;101571.47;;;23.18;30.53
76973;BME280;65907;53.640;10.050;2023-06-04T05:56:00;101566.84;;;23.11;30.88
76973;BME280;65907;53.640;10.050;2023-06-04T05:58:25;101570.06;;;22.91;31.73
76973;BME280;65907;53.640;10.050;2023-06-04T06:00:50;101569.69;;;23.08;32.00
76973;BME280;65907;53.640;10.050;2023-06-04T06:03:16;101570.16;;;23.13;31.44
76973;BME280;65907;53.640;10.050;2023-06-04T06:05:41;101570.97;;;23.13;31.03
76973;BME280;65907;53.640;10.050;2023-06-04T06:08:09;101571.84;;;23.02;31.55
76973;BME280;65907;53.640;10.050;2023-06-04T06:10:35;101577.66;;;23.17;31.17
76973;BME280;65907;53.640;10.050;2023-06-04T06:13:00;101580.16;;;23.19;30.75
76973;BME280;65907;53.640;10.050;2023-06-04T06:15:26;101573.97;;;23.31;30.79
76973;BME280;65907;53.640;10.050;2023-06-04T06:17:51;101575.25;;;23.37;30.38
76973;BME280;65907;53.640;10.050;2023-06-04T06:20:17;101579.88;;;23.45;30.62
76973;BME280;65907;53.640;10.050;2023-06-04T06:22:42;101579.38;;;23.51;30.43
76973;BME280;65907;53.640;10.050;2023-06-04T06:25:08;101581.59;;;23.23;30.71
76973;BME280;65907;53.640;10.050;2023-06-04T06:27:33;101573.88;;;22.99;31.81
76973;BME280;65907;53.640;10.050;2023-06-04T06:29:58;101577.59;;;22.85;32.58
76973;BME280;65907;53.640;10.050;2023-06-04T06:32:25;101583.66;;;22.74;32.43
76973;BME280;65907;53.640;10.050;2023-06-04T06:34:50;101589.75;;;22.63;33.20
76973;BME280;65907;53.640;10.050;2023-06-04T06:37:16;101583.66;;;22.74;32.93
76973;BME280;65907;53.640;10.050;2023-06-04T06:39:41;101586.41;;;22.84;32.66
76973;BME280;65907;53.640;10.050;2023-06-04T06:42:06;101582.44;;;23.24;32.45
76973;BME280;65907;53.640;10.050;2023-06-04T06:44:31;101584.53;;;23.53;31.58
76973;BME280;65907;53.640;10.050;2023-06-04T06:46:57;101587.47;;;23.27;32.24
76973;BME280;65907;53.640;10.050;2023-06-04T06:49:22;101590.03;;;23.38;32.16
76973;BME280;65907;53.640;10.050;2023-06-04T06:51:47;101584.78;;;23.38;32.29
76973;BME280;65907;53.640;10.050;2023-06-04T06:54:14;101594.41;;;23.60;31.74
76973;BME280;65907;53.640;10.050;2023-06-04T06:56:40;101592.84;;;23.58;31.57
76973;BME280;65907;53.640;10.050;2023-06-04T06:59:06;101592.75;;;23.59;31.57
76973;BME280;65907;53.640;10.050;2023-06-04T07:01:31;101597.84;;;23.61;31.64
76973;BME280;65907;53.640;10.050;2023-06-04T07:03:58;101595.28;;;23.49;31.84
76973;BME280;65907;53.640;10.050;2023-06-04T07:06:23;101599.66;;;23.60;31.75
76973;BME280;65907;53.640;10.050;2023-06-04T07:08:51;101595.13;;;23.51;29.75
76973;BME280;65907;53.640;10.050;2023-06-04T07:11:17;101599.25;;;22.17;28.12
76973;BME280;65907;53.640;10.050;2023-06-04T07:13:42;101599.84;;;21.60;28.05
76973;BME280;65907;53.640;10.050;2023-06-04T07:16:09;101600.06;;;21.20;30.33
76973;BME280;65907;53.640;10.050;2023-06-04T07:18:34;101603.22;;;21.49;29.94
76973;BME280;65907;53.640;10.050;2023-06-04T07:21:00;101599.03;;;21.84;30.45
76973;BME280;65907;53.640;10.050;2023-06-04T07:23:25;101601.66;;;21.84;29.64
76973;BME280;65907;53.640;10.050;2023-06-04T07:25:50;101598.81;;;21.87;28.09
76973;BME280;65907;53.640;10.050;2023-06-04T07:28:15;101599.91;;;21.96;27.56
76973;BME280;65907;53.640;10.050;2023-06-04T07:30:41;101604.19;;;21.97;28.59
76973;BME280;65907;53.640;10.050;2023-06-04T07:33:06;101588.66;;;21.58;28.00
76973;BME280;65907;53.640;10.050;2023-06-04T07:35:31;101591.94;;;22.33;28.29
76973;BME280;65907;53.640;10.050;2023-06-04T07:37:56;101596.09;;;22.36;28.11
76973;BME280;65907;53.640;10.050;2023-06-04T07:40:22;101588.78;;;22.05;27.50
76973;BME280;65907;53.640;10.050;2023-06-04T07:42:47;101594.56;;;22.45;28.49
76973;BME280;65907;53.640;10.050;2023-06-04T07:45:13;101595.44;;;22.57;28.34
76973;BME280;65907;53.640;10.050;2023-06-04T07:47:38;101598.56;;;22.62;27.46
76973;BME280;65907;53.640;10.050;2023-06-04T07:50:04;101598.09;;;22.91;28.75
76973;BME280;65907;53.640;10.050;2023-06-04T07:52:30;101600.94;;;22.65;27.73
76973;BME280;65907;53.640;10.050;2023-06-04T07:54:55;101600.44;;;22.83;28.16
76973;BME280;65907;53.640;10.050;2023-06-04T07:57:21;101605.47;;;22.86;28.85
76973;BME280;65907;53.640;10.050;2023-06-04T07:59:47;101602.13;;;22.95;25.80
76973;BME280;65907;53.640;10.050;2023-06-04T08:02:12;101603.78;;;22.51;27.40
76973;BME280;65907;53.640;10.050;2023-06-04T08:04:37;101603.56;;;22.76;26.25
76973;BME280;65907;53.640;10.050;2023-06-04T08:07:06;101605.94;;;22.68;26.29
76973;BME280;65907;53.640;10.050;2023-06-04T08:09:38;101605.94;;;23.02;26.21
76973;BME280;65907;53.640;10.050;2023-06-04T08:12:03;101605.34;;;23.10;25.69
76973;BME280;65907;53.640;10.050;2023-06-04T08:14:28;101601.19;;;22.96;26.54
76973;BME280;65907;53.640;10.050;2023-06-04T08:16:54;101601.38;;;23.39;27.06
76973;BME280;65907;53.640;10.050;2023-06-04T08:19:19;101604.38;;;23.45;26.09
76973;BME280;65907;53.640;10.050;2023-06-04T08:21:48;101600.78;;;23.24;24.62
76973;BME280;65907;53.640;10.050;2023-06-04T08:24:14;101598.66;;;23.06;26.50
76973;BME280;65907;53.640;10.050;2023-06-04T08:26:40;101597.81;;;23.28;26.17
76973;BME280;65907;53.640;10.050;2023-06-04T08:29:06;101600.72;;;23.69;25.78
76973;BME280;65907;53.640;10.050;2023-06-04T08:31:31;101602.63;;;23.67;23.45
76973;BME280;65907;53.640;10.050;2023-06-04T08:33:57;101609.25;;;23.39;24.32
76973;BME280;65907;53.640;10.050;2023-06-04T08:36:22;101606.53;;;23.29;25.02
76973;BME280;65907;53.640;10.050;2023-06-04T08:38:47;101603.34;;;23.58;25.00
76973;BME280;65907;53.640;10.050;2023-06-04T08:41:24;101607.47;;;23.39;24.74
76973;BME280;65907;53.640;10.050;2023-06-04T08:43:56;101605.81;;;23.71;24.60
76973;BME280;65907;53.640;10.050;2023-06-04T08:46:22;101610.53;;;23.88;24.85
76973;BME280;65907;53.640;10.050;2023-06-04T08:48:48;101609.53;;;24.01;23.63
76973;BME280;65907;53.640;10.050;2023-06-04T08:51:17;101603.91;;;23.73;25.11
76973;BME280;65907;53.640;10.050;2023-06-04T08:53:52;101606.03;;;23.79;24.04
76973;BME280;65907;53.640;10.050;2023-06-04T08:56:19;101608.75;;;23.45;24.41
76973;BME280;65907;53.640;10.050;2023-06-04T08:58:45;101610.06;;;23.51;25.06
76973;BME280;65907;53.640;10.050;2023-06-04T09:01:11;101607.78;;;23.57;25.46
76973;BME280;65907;53.640;10.050;2023-06-04T09:03:38;101603.00;;;23.62;25.39
76973;BME280;65907;53.640;10.050;2023-06-04T09:06:04;101612.19;;;23.89;25.48
76973;BME280;65907;53.640;10.050;2023-06-04T09:08:34;101603.97;;;24.15;25.01
76973;BME280;65907;53.640;10.050;2023-06-04T09:11:00;101607.09;;;23.88;24.75
76973;BME280;65907;53.640;10.050;2023-06-04T09:13:29;101606.88;;;23.80;25.01
76973;BME280;65907;53.640;10.050;2023-06-04T09:16:00;101608.81;;;23.99;24.90
76973;BME280;65907;53.640;10.050;2023-06-04T09:18:25;101604.16;;;24.02;24.29
76973;BME280;65907;53.640;10.050;2023-06-04T09:20:59;101606.88;;;23.80;24.13
76973;BME280;65907;53.640;10.050;2023-06-04T09:23:25;101604.94;;;24.14;24.81
76973;BME280;65907;53.640;10.050;2023-06-04T09:25:50;101610.25;;;24.24;24.20
76973;BME280;65907;53.640;10.050;2023-06-04T09:28:17;101602.91;;;24.18;24.57
76973;BME280;65907;53.640;10.050;2023-06-04T09:30:50;101608.59;;;24.23;24.93
76973;BME280;65907;53.640;10.050;2023-06-04T09:33:15;101608.84;;;24.20;24.33
76973;BME280;65907;53.640;10.050;2023-06-04T09:35:41;101607.19;;;24.19;24.13
76973;BME280;65907;53.640;10.050;2023-06-04T09:38:09;101605.00;;;24.24;23.63
76973;BME280;65907;53.640;10.050;2023-06-04T09:40:35;101606.69;;;23.92;24.03
76973;BME280;65907;53.640;10.050;2023-06-04T09:43:03;101610.28;;;23.91;24.73
76973;BME280;65907;53.640;10.050;2023-06-04T09:45:32;101609.31;;;23.92;24.73
76973;BME280;65907;53.640;10.050;2023-06-04T09:47:58;101610.34;;;24.13;24.47
76973;BME280;65907;53.640;10.050;2023-06-04T09:50:27;101600.34;;;24.28;24.12
76973;BME280;65907;53.640;10.050;2023-06-04T09:52:53;101595.97;;;24.17;23.98
76973;BME280;65907;53.640;10.050;2023-06-04T09:55:21;101601.25;;;23.84;23.50
76973;BME280;65907;53.640;10.050;2023-06-04T09:57:47;101601.66;;;24.01;23.90
76973;BME280;65907;53.640;10.050;2023-06-04T10:00:19;101601.09;;;24.18;23.06
76973;BME280;65907;53.640;10.050;2023-06-04T10:02:48;101600.22;;;23.97;23.45
76973;BME280;65907;53.640;10.050;2023-06-04T10:05:13;101594.25;;;23.95;23.59
76973;BME280;65907;53.640;10.050;2023-06-04T10:07:40;101603.72;;;24.18;22.88
76973;BME280;65907;53.640;10.050;2023-06-04T10:10:09;101597.44;;;24.31;22.74
76973;BME280;65907;53.640;10.050;2023-06-04T10:12:36;101601.38;;;24.37;23.14
76973;BME280;65907;53.640;10.050;2023-06-04T10:15:02;101598.97;;;24.12;22.91
76973;BME280;65907;53.640;10.050;2023-06-04T10:17:30;101591.59;;;24.27;22.16
76973;BME280;65907;53.640;10.050;2023-06-04T10:19:58;101586.28;;;23.63;23.61
76973;BME280;65907;53.640;10.050;2023-06-04T10:22:24;101591.88;;;24.03;22.85
76973;BME280;65907;53.640;10.050;2023-06-04T10:24:50;101590.78;;;24.05;22.58
76973;BME280;65907;53.640;10.050;2023-06-04T10:27:16;101592.69;;;24.03;23.18
76973;BME280;65907;53.640;10.050;2023-06-04T10:29:44;101587.25;;;23.84;23.27
76973;BME280;65907;53.640;10.050;2023-06-04T10:32:12;101589.38;;;24.23;22.72
76973;BME280;65907;53.640;10.050;2023-06-04T10:34:40;101587.47;;;23.92;22.69
76973;BME280;65907;53.640;10.050;2023-06-04T10:37:05;101587.00;;;24.19;22.79
76973;BME280;65907;53.640;10.050;2023-06-04T10:39:31;101588.72;;;24.09;22.88
76973;BME280;65907;53.640;10.050;2023-06-04T10:42:03;101590.28;;;24.00;23.39
76973;BME280;65907;53.640;10.050;2023-06-04T10:44:30;101587.41;;;23.82;23.75
76973;BME280;65907;53.640;10.050;2023-06-04T10:46:56;101588.19;;;23.94;23.94
76973;BME280;65907;53.640;10.050;2023-06-04T10:49:28;101583.97;;;24.24;23.71
76973;BME280;65907;53.640;10.050;2023-06-04T10:51:53;101584.13;;;24.01;24.18
76973;BME280;65907;53.640;10.050;2023-06-04T10:54:24;101585.06;;;24.22;24.15
76973;BME280;65907;53.640;10.050;2023-06-04T10:56:52;101584.19;;;24.11;24.74
76973;BME280;65907;53.640;10.050;2023-06-04T10:59:20;101591.28;;;24.20;24.45
76973;BME280;65907;53.640;10.050;2023-06-04T11:01:46;101587.53;;;24.34;23.55
76973;BME280;65907;53.640;10.050;2023-06-04T11:04:24;101585.81;;;24.33;23.99
76973;BME280;65907;53.640;10.050;2023-06-04T11:07:00;101580.88;;;24.40;23.35
76973;BME280;65907;53.640;10.050;2023-06-04T11:09:26;101582.25;;;24.13;23.89
76973;BME280;65907;53.640;10.050;2023-06-04T11:11:58;101580.91;;;24.19;23.99
76973;BME280;65907;53.640;10.050;2023-06-04T11:14:24;101578.66;;;24.14;23.77
76973;BME280;65907;53.640;10.050;2023-06-04T11:16:49;101570.47;;;24.29;22.53
76973;BME280;65907;53.640;10.050;2023-06-04T11:19:14;101574.53;;;24.12;22.36
76973;BME280;65907;53.640;10.050;2023-06-04T11:21:40;101572.53;;;24.04;22.73
76973;BME280;65907;53.640;10.050;2023-06-04T11:24:05;101564.41;;;24.38;22.30
76973;BME280;65907;53.640;10.050;2023-06-04T11:26:34;101568.41;;;24.11;22.59
76973;BME280;65907;53.640;10.050;2023-06-04T11:29:00;101562.91;;;24.36;22.62
76973;BME280;65907;53.640;10.050;2023-06-04T11:31:25;101559.75;;;24.20;23.28
76973;BME280;65907;53.640;10.050;2023-06-04T11:33:51;101554.91;;;24.16;23.82
76973;BME280;65907;53.640;10.050;2023-06-04T11:36:26;101562.84;;;24.26;23.67
76973;BME280;65907;53.640;10.050;2023-06-04T11:38:56;101556.00;;;24.44;23.60
76973;BME280;65907;53.640;10.050;2023-06-04T11:41:22;101548.91;;;24.35;23.50
76973;BME280;65907;53.640;10.050;2023-06-04T11:43:50;101535.16;;;24.53;23.27
76973;BME280;65907;53.640;10.050;2023-06-04T11:46:16;101549.34;;;24.40;23.74
76973;BME280;65907;53.640;10.050;2023-06-04T11:48:41;101546.50;;;24.53;23.16
76973;BME280;65907;53.640;10.050;2023-06-04T11:51:08;101549.34;;;24.40;22.68
76973;BME280;65907;53.640;10.050;2023-06-04T11:53:35;101548.28;;;24.22;22.86
76973;BME280;65907;53.640;10.050;2023-06-04T11:56:01;101544.72;;;24.32;22.57
76973;BME280;65907;53.640;10.050;2023-06-04T11:58:26;101549.81;;;24.45;22.17
76973;BME280;65907;53.640;10.050;2023-06-04T12:00:56;101552.63;;;24.63;22.14
76973;BME280;65907;53.640;10.050;2023-06-04T12:03:35;101549.53;;;24.48;22.02
76973;BME280;65907;53.640;10.050;2023-06-04T12:13:52;101540.66;;;24.18;21.32
76973;BME280;65907;53.640;10.050;2023-06-04T12:16:18;101538.88;;;24.19;20.50
76973;BME280;65907;53.640;10.050;2023-06-04T12:18:46;101546.41;;;24.33;20.81
76973;BME280;65907;53.640;10.050;2023-06-04T12:21:17;101538.94;;;24.29;21.01
76973;BME280;65907;53.640;10.050;2023-06-04T12:23:46;101544.78;;;24.11;20.93
76973;BME280;65907;53.640;10.050;2023-06-04T12:26:21;101543.06;;;24.31;21.28
76973;BME280;65907;53.640;10.050;2023-06-04T12:28:57;101535.88;;;24.24;21.21
76973;BME280;65907;53.640;10.050;2023-06-04T12:31:23;101544.50;;;24.36;21.62
76973;BME280;65907;53.640;10.050;2023-06-04T12:33:48;101538.13;;;24.38;21.15
76973;BME280;65907;53.640;10.050;2023-06-04T12:36:13;101548.06;;;23.71;22.08
76973;BME280;65907;53.640;10.050;2023-06-04T12:38:39;101542.94;;;24.02;20.78
76973;BME280;65907;53.640;10.050;2023-06-04T12:41:04;101541.00;;;24.04;21.61
76973;BME280;65907;53.640;10.050;2023-06-04T12:43:30;101538.72;;;24.42;21.20
76973;BME280;65907;53.640;10.050;2023-06-04T12:45:58;101537.13;;;24.29;21.85
76973;BME280;65907;53.640;10.050;2023-06-04T12:48:23;101530.59;;;24.24;22.21